sensor_id;sensor_type;location;lat;lon;timestamp;pressure;altitude;pressure_sealevel;temperature;humidity
30338;BME280;17143;51.888;5.408;2023-02-15T00:13:07;102757.56;;;5.27;100.00
30338;BME280;17143;51.888;5.408;2023-02-15T00:28:09;102738.56;;;5.27;100.00
30338;BME280;17143;51.888;5.408;2023-02-15T00:43:11;102735.81;;;5.25;100.00
30338;BME280;17143;51.888;5.408;2023-02-15T00:58:14;102721.78;;;5.15;100.00
30338;BME280;17143;51.888;5.408;2023-02-15T01:13:16;102702.72;;;5.06;100.00
30338;BME280;17143;51.888;5.408;2023-02-15T01:28:18;102699.78;;;4.94;100.00
30338;BME280;17143;51.888;5.408;2023-02-15T01:43:20;102704.97;;;4.78;100.00
30338;BME280;17143;51.888;5.408;2023-02-15T01:58:24;102680.28;;;4.65;100.00
30338;BME280;17143;51.888;5.408;2023-02-15T02:13:28;102663.91;;;4.49;100.00
30338;BME280;17143;51.888;5.408;2023-02-15T02:28:49;102661.09;;;4.39;100.00
30338;BME280;17143;51.888;5.408;2023-02-15T02:44:01;102642.81;;;4.28;100.00
30338;BME280;17143;51.888;5.408;2023-02-15T02:59:11;102628.44;;;4.15;100.00
30338;BME280;17143;51.888;5.408;2023-02-15T03:14:17;102605.88;;;4.05;100.00
30338;BME280;17143;51.888;5.408;2023-02-15T03:29:24;102592.75;;;3.95;100.00
30338;BME280;17143;51.888;5.408;2023-02-15T03:44:30;102584.09;;;3.79;100.00
30338;BME280;17143;51.888;5.408;2023-02-15T03:59:32;102584.28;;;3.65;100.00
30338;BME280;17143;51.888;5.408;2023-02-15T04:14:35;102580.78;;;3.49;100.00
30338;BME280;17143;51.888;5.408;2023-02-15T04:29:37;102588.66;;;3.35;100.00
30338;BME280;17143;51.888;5.408;2023-02-15T04:44:39;102572.25;;;3.19;100.00
30338;BME280;17143;51.888;5.408;2023-02-15T04:59:41;102558.78;;;3.05;100.00
30338;BME280;17143;51.888;5.408;2023-02-15T05:14:43;102541.97;;;2.93;100.00
30338;BME280;17143;51.888;5.408;2023-02-15T05:29:45;102549.41;;;2.83;100.00
30338;BME280;17143;51.888;5.408;2023-02-15T05:44:47;102551.34;;;2.70;100.00
30338;BME280;17143;51.888;5.408;2023-02-15T05:59:49;102548.13;;;2.57;100.00
30338;BME280;17143;51.888;5.408;2023-02-15T06:14:51;102550.44;;;2.47;100.00
30338;BME280;17143;51.888;5.408;2023-02-15T06:29:53;102532.13;;;2.37;100.00
30338;BME280;17143;51.888;5.408;2023-02-15T06:44:55;102534.56;;;2.35;100.00
30338;BME280;17143;51.888;5.408;2023-02-15T06:59:57;102530.28;;;2.36;100.00
30338;BME280;17143;51.888;5.408;2023-02-15T07:14:59;102534.44;;;2.50;100.00
30338;BME280;17143;51.888;5.408;2023-02-15T07:30:01;102525.97;;;2.73;100.00
30338;BME280;17143;51.888;5.408;2023-02-15T07:45:03;102503.31;;;3.00;100.00
30338;BME280;17143;51.888;5.408;2023-02-15T08:00:07;102487.63;;;5.15;100.00
30338;BME280;17143;51.888;5.408;2023-02-15T08:15:14;102474.88;;;7.27;100.00
30338;BME280;17143;51.888;5.408;2023-02-15T08:30:16;102470.56;;;7.73;96.41
30338;BME280;17143;51.888;5.408;2023-02-15T08:45:18;102462.25;;;9.33;90.92
30338;BME280;17143;51.888;5.408;2023-02-15T09:00:21;102459.97;;;9.98;88.41
30338;BME280;17143;51.888;5.408;2023-02-15T09:15:23;102445.91;;;9.24;89.77
30338;BME280;17143;51.888;5.408;2023-02-15T09:30:25;102437.63;;;10.53;85.12
30338;BME280;17143;51.888;5.408;2023-02-15T09:45:34;102440.06;;;11.17;83.98
30338;BME280;17143;51.888;5.408;2023-02-15T10:00:48;102442.31;;;12.74;77.12
30338;BME280;17143;51.888;5.408;2023-02-15T10:16:03;102432.44;;;13.07;75.88
30338;BME280;17143;51.888;5.408;2023-02-15T10:31:15;102437.78;;;12.97;75.20
30338;BME280;17143;51.888;5.408;2023-02-15T10:46:30;102440.75;;;14.03;72.87
30338;BME280;17143;51.888;5.408;2023-02-15T11:01:41;102434.91;;;13.94;74.17
30338;BME280;17143;51.888;5.408;2023-02-15T11:16:48;102422.88;;;12.96;77.80
30338;BME280;17143;51.888;5.408;2023-02-15T11:31:54;102403.97;;;12.50;81.58
30338;BME280;17143;51.888;5.408;2023-02-15T11:46:56;102375.69;;;13.19;80.19
30338;BME280;17143;51.888;5.408;2023-02-15T12:01:59;102343.94;;;13.39;79.50
30338;BME280;17143;51.888;5.408;2023-02-15T12:17:01;102333.66;;;13.42;80.02
30338;BME280;17143;51.888;5.408;2023-02-15T12:32:03;102328.78;;;13.87;79.58
30338;BME280;17143;51.888;5.408;2023-02-15T12:47:17;102311.66;;;13.79;78.59
30338;BME280;17143;51.888;5.408;2023-02-15T13:02:31;102293.53;;;13.69;77.84
30338;BME280;17143;51.888;5.408;2023-02-15T13:17:36;102285.66;;;13.82;77.08
30338;BME280;17143;51.888;5.408;2023-02-15T13:32:40;102268.09;;;14.08;76.06
30338;BME280;17143;51.888;5.408;2023-02-15T13:47:47;102267.22;;;14.22;75.84
30338;BME280;17143;51.888;5.408;2023-02-15T14:03:17;102264.81;;;14.12;75.31
30338;BME280;17143;51.888;5.408;2023-02-15T14:18:30;102255.59;;;14.03;76.88
30338;BME280;17143;51.888;5.408;2023-02-15T14:33:38;102245.09;;;14.03;77.57
30338;BME280;17143;51.888;5.408;2023-02-15T14:48:45;102245.19;;;13.77;77.72
30338;BME280;17143;51.888;5.408;2023-02-15T15:03:49;102236.94;;;13.58;78.40
30338;BME280;17143;51.888;5.408;2023-02-15T15:18:53;102232.34;;;13.41;79.75
30338;BME280;17143;51.888;5.408;2023-02-15T15:34:27;102230.75;;;13.17;80.65
30338;BME280;17143;51.888;5.408;2023-02-15T15:49:33;102232.53;;;12.92;82.31
30338;BME280;17143;51.888;5.408;2023-02-15T16:04:37;102218.81;;;12.69;83.21
30338;BME280;17143;51.888;5.408;2023-02-15T16:19:41;102229.22;;;12.43;84.07
30338;BME280;17143;51.888;5.408;2023-02-15T16:34:52;102220.97;;;12.12;85.55
30338;BME280;17143;51.888;5.408;2023-02-15T16:49:57;102236.53;;;11.75;85.94
30338;BME280;17143;51.888;5.408;2023-02-15T17:05:12;102219.09;;;11.39;86.62
30338;BME280;17143;51.888;5.408;2023-02-15T17:20:18;102223.44;;;11.04;88.10
30338;BME280;17143;51.888;5.408;2023-02-15T17:35:22;102232.03;;;10.68;88.90
30338;BME280;17143;51.888;5.408;2023-02-15T17:50:26;102236.72;;;10.38;89.95
30338;BME280;17143;51.888;5.408;2023-02-15T18:05:28;102230.91;;;10.09;90.49
30338;BME280;17143;51.888;5.408;2023-02-15T18:20:33;102246.69;;;9.89;91.39
30338;BME280;17143;51.888;5.408;2023-02-15T18:35:35;102248.09;;;9.64;91.60
30338;BME280;17143;51.888;5.408;2023-02-15T18:50:37;102253.16;;;9.41;92.35
30338;BME280;17143;51.888;5.408;2023-02-15T19:05:41;102267.25;;;9.23;93.90
30338;BME280;17143;51.888;5.408;2023-02-15T19:20:45;102261.28;;;9.13;93.76
30338;BME280;17143;51.888;5.408;2023-02-15T19:35:49;102260.66;;;9.06;94.84
30338;BME280;17143;51.888;5.408;2023-02-15T19:50:53;102258.50;;;8.90;95.76
30338;BME280;17143;51.888;5.408;2023-02-15T20:05:55;102247.88;;;8.77;96.64
30338;BME280;17143;51.888;5.408;2023-02-15T20:20:57;102249.03;;;8.61;97.63
30338;BME280;17143;51.888;5.408;2023-02-15T20:35:59;102234.41;;;8.41;97.70
30338;BME280;17143;51.888;5.408;2023-02-15T20:51:01;102243.44;;;8.26;99.33
30338;BME280;17143;51.888;5.408;2023-02-15T21:06:04;102242.38;;;8.14;98.78
30338;BME280;17143;51.888;5.408;2023-02-15T21:21:11;102227.56;;;8.03;100.00
30338;BME280;17143;51.888;5.408;2023-02-15T21:36:17;102239.75;;;7.83;100.00
30338;BME280;17143;51.888;5.408;2023-02-15T21:51:19;102243.31;;;7.65;100.00
30338;BME280;17143;51.888;5.408;2023-02-15T22:06:22;102240.94;;;7.48;100.00
30338;BME280;17143;51.888;5.408;2023-02-15T22:21:24;102234.81;;;7.38;100.00
30338;BME280;17143;51.888;5.408;2023-02-15T22:36:27;102233.59;;;7.34;100.00
30338;BME280;17143;51.888;5.408;2023-02-15T22:51:30;102232.81;;;7.25;100.00
30338;BME280;17143;51.888;5.408;2023-02-15T23:06:32;102232.50;;;7.12;100.00
30338;BME280;17143;51.888;5.408;2023-02-15T23:21:34;102209.09;;;7.02;100.00
30338;BME280;17143;51.888;5.408;2023-02-15T23:36:38;102221.81;;;6.99;100.00
30338;BME280;17143;51.888;5.408;2023-02-15T23:51:41;102223.41;;;6.88;100.00
